Main page
METAR-TAF:

METAR-TAF

Airports :

Bahrain International Airport

Bahrain, Bahrain

latitude: 26-16N, longitude: 050-39E, elevation: 2 m

Current weather observation

The report was made 27 minutes ago, at 23:30 UTC
Wind 4 kt from the West
Temperature 35°C
Humidity 56%
Pressure 993 hPa
Visibility 10 km or more
no clouds below 1500 m and no cumulonimbus

METAR: OBBI 092330Z 28004KT CAVOK 35/25 Q0993 NOSIG

Time: 02:57 (23:57 UTC)

Forecast

The report was made 57 minutes ago, at 23:00 UTC
Forecast valid from 10 at 00 UTC to 11 at 06 UTC
Wind 12 kt from the North/Northwest
Visibility 10 km or more
no clouds below 1500 m and no cumulonimbus
Becoming
from 10 at 16 UTC to 10 at 18 UTC
Wind 5 kt from variable directions

TAF: OBBI 092300Z 1000/1106 33012KT CAVOK BECMG 1016/1018 VRB05KT

Weather observations and forecasts of more than 4000 airports (METAR and TAF reports).

The available stations are represented by yellow and red dots on the map.

Hover mouse over dot to see the name of the station.

Then click to see weather observations and forecasts.

To change the map : click on the green buttons with a black cross to zoom in, on the green button with a dash to zoom out, or on the green arrows for adjacent maps.


METAR-TAF: